Time;durP1;ratioP1;P1;durP2;ratioP2;P2;SDS_P1;SDS_P2;PMS_P1;PMS_P2;Temp;Humidity;BMP_temperature;BMP_pressure;BME280_temperature;BME280_humidity;BME280_pressure;Samples;Min_cycle;Max_cycle;Signal;HPM_P1;HPM_P2
2022/08/14 00:00:58;;;;;;;7.35;2.40;;;;;;;20.50;nan;101036.06;2096606;28;20047;-67
2022/08/14 00:02:04;;;;;;;7.05;2.40;;;;;;;20.44;nan;101032.72;2097059;28;20495;-68
2022/08/14 00:03:06;;;;;;;4.85;2.20;;;;;;;20.48;nan;101039.13;2088836;28;20029;-68
2022/08/14 00:04:09;;;;;;;5.95;2.13;;;;;;;20.48;nan;101035.59;2080559;28;20044;-68
2022/08/14 00:05:17;;;;;;;3.17;2.00;;;;;;;20.50;nan;101041.53;2089852;28;20645;-68
2022/08/14 00:06:19;;;;;;;6.25;2.30;;;;;;;20.49;nan;101038.00;2096432;28;20554;-68
2022/08/14 00:07:27;;;;;;;6.15;2.42;;;;;;;20.51;nan;101038.47;2097568;28;20052;-69
2022/08/14 00:08:34;;;;;;;7.40;2.35;;;;;;;20.48;nan;101033.66;2104965;28;20044;-69
2022/08/14 00:09:39;;;;;;;8.20;2.35;;;;;;;20.46;nan;101035.13;2096980;28;20686;-68
2022/08/14 00:10:42;;;;;;;3.28;2.40;;;;;;;20.46;nan;101030.47;2105457;28;20058;-69
2022/08/14 00:11:55;;;;;;;5.38;2.33;;;;;;;20.49;nan;101034.44;2113330;28;20031;-68
2022/08/14 00:12:57;;;;;;;6.20;2.40;;;;;;;20.49;nan;101029.81;2103902;28;20039;-69
2022/08/14 00:14:00;;;;;;;9.13;2.53;;;;;;;20.50;nan;101025.16;2105198;28;20028;-69
2022/08/14 00:15:13;;;;;;;4.10;2.20;;;;;;;20.49;nan;101024.34;2104442;28;20040;-68
2022/08/14 00:16:17;;;;;;;9.43;2.33;;;;;;;20.52;nan;101023.72;2094107;28;20044;-67
2022/08/14 00:17:23;;;;;;;9.18;2.55;;;;;;;20.52;nan;101026.44;2097423;28;20411;-67
2022/08/14 00:18:28;;;;;;;9.25;2.65;;;;;;;20.46;nan;101016.81;2113729;28;20027;-68
2022/08/14 00:19:33;;;;;;;10.60;2.85;;;;;;;20.43;nan;101022.94;2111326;28;20044;-67
2022/08/14 00:20:42;;;;;;;5.10;2.40;;;;;;;20.43;nan;101019.41;2096835;28;20508;-68
2022/08/14 00:21:52;;;;;;;6.95;2.05;;;;;;;20.42;nan;101018.59;2097854;28;20048;-68
2022/08/14 00:22:57;;;;;;;8.55;2.28;;;;;;;20.40;nan;101012.69;2104083;28;20538;-68
2022/08/14 00:24:03;;;;;;;8.55;2.28;;;;;;;20.44;nan;101018.28;2095710;28;20049;-68
2022/08/14 00:25:08;;;;;;;4.70;2.05;;;;;;;20.43;nan;101014.75;2089152;28;20028;-68
2022/08/14 00:26:13;;;;;;;4.82;2.50;;;;;;;20.44;nan;101016.34;2089282;28;20472;-67
2022/08/14 00:27:15;;;;;;;7.70;2.28;;;;;;;20.46;nan;101005.91;2097421;28;20044;-68
2022/08/14 00:28:18;;;;;;;8.75;2.17;;;;;;;20.48;nan;101020.00;2097044;28;20676;-68
2022/08/14 00:29:20;;;;;;;5.63;2.20;;;;;;;20.49;nan;101018.88;2080344;28;20037;-68
2022/08/14 00:30:24;;;;;;;5.05;2.13;;;;;;;20.50;nan;101016.94;2073915;28;20037;-68
2022/08/14 00:31:27;;;;;;;4.38;2.60;;;;;;;20.52;nan;101023.72;2093903;28;20047;-67
2022/08/14 00:32:32;;;;;;;4.45;2.50;;;;;;;20.55;nan;101025.78;2105095;28;20036;-68
2022/08/14 00:33:35;;;;;;;11.10;2.40;;;;;;;20.55;nan;101016.75;2097121;28;20040;-68
2022/08/14 00:34:40;;;;;;;12.27;2.10;;;;;;;20.54;nan;101018.69;2097298;28;20033;-67
2022/08/14 00:35:42;;;;;;;5.25;2.05;;;;;;;20.54;nan;101015.97;2104658;28;20055;-68
2022/08/14 00:36:50;;;;;;;9.43;2.33;;;;;;;20.55;nan;101016.75;2104201;28;20103;-69
2022/08/14 00:38:00;;;;;;;8.02;2.58;;;;;;;20.56;nan;101013.72;2096441;28;20053;-67
2022/08/14 00:39:04;;;;;;;;;;;;;;;20.58;nan;101016.88;2105810;28;20028;-67
2022/08/14 00:40:13;;;;;;;3.47;2.15;;;;;;;20.58;nan;101016.88;2105031;28;20371;-68
2022/08/14 00:41:18;;;;;;;5.97;2.10;;;;;;;20.51;nan;101016.63;2104566;28;20523;-68
2022/08/14 00:42:21;;;;;;;10.55;2.30;;;;;;;20.52;nan;101015.53;2088262;28;20056;-68
2022/08/14 00:43:24;;;;;;;6.47;2.00;;;;;;;20.52;nan;101012.78;2089219;28;20044;-69
2022/08/14 00:44:29;;;;;;;6.13;2.20;;;;;;;20.46;nan;101013.25;2096563;28;20040;-69
2022/08/14 00:45:33;;;;;;;7.97;2.25;;;;;;;20.44;nan;101016.34;2079844;28;20052;-68
2022/08/14 00:46:36;;;;;;;4.63;2.33;;;;;;;20.44;nan;101010.88;2087886;28;20043;-68
2022/08/14 00:47:41;;;;;;;7.05;2.90;;;;;;;20.42;nan;101012.34;2094522;28;20040;-69
2022/08/14 00:48:45;;;;;;;4.03;2.30;;;;;;;20.38;nan;101013.00;2087485;28;20068;-67
2022/08/14 00:49:49;;;;;;;5.35;2.42;;;;;;;20.36;nan;101017.19;2072459;28;20037;-68
2022/08/14 00:50:54;;;;;;;8.75;2.45;;;;;;;20.35;nan;101010.94;2089490;28;20040;-68
2022/08/14 00:51:59;;;;;;;3.72;2.40;;;;;;;20.36;nan;101009.00;2104211;28;20036;-70
2022/08/14 00:53:04;;;;;;;6.35;2.42;;;;;;;20.36;nan;101009.00;2092140;28;20029;-68
2022/08/14 00:54:09;;;;;;;9.05;2.85;;;;;;;20.40;nan;101009.13;2087730;28;20036;-68
2022/08/14 00:55:13;;;;;;;6.90;2.40;;;;;;;20.42;nan;100998.69;2088925;28;20037;-67
2022/08/14 00:56:15;;;;;;;6.15;2.40;;;;;;;20.44;nan;101002.69;2088101;28;20360;-66
2022/08/14 00:57:21;;;;;;;6.97;2.42;;;;;;;20.38;nan;101007.56;2096213;28;20051;-67
2022/08/14 00:58:29;;;;;;;5.75;2.17;;;;;;;20.36;nan;101009.00;2095585;28;20044;-68
2022/08/14 00:59:31;;;;;;;4.68;2.65;;;;;;;20.29;nan;101000.56;2097047;28;20044;-68
2022/08/14 01:00:33;;;;;;;6.78;2.40;;;;;;;20.22;nan;101003.81;2104488;28;20043;-68
2022/08/14 01:01:39;;;;;;;4.07;2.20;;;;;;;20.21;nan;101004.97;2095281;28;20412;-68
2022/08/14 01:02:43;;;;;;;3.67;2.40;;;;;;;20.23;nan;101001.91;2096714;28;20040;-68
2022/08/14 01:03:48;;;;;;;3.67;2.30;;;;;;;20.24;nan;101001.56;2096985;28;20032;-68
2022/08/14 01:05:06;;;;;;;2.65;2.08;;;;;;;20.23;nan;101005.41;2096815;28;20024;-68
2022/08/14 01:06:15;;;;;;;5.07;2.17;;;;;;;20.18;nan;101002.09;2103842;28;20067;-68
2022/08/14 01:07:21;;;;;;;5.68;2.55;;;;;;;20.14;nan;100996.50;2103582;28;20044;-68
2022/08/14 01:08:30;;;;;;;6.47;2.58;;;;;;;20.14;nan;100997.31;2088341;28;20044;-69
2022/08/14 01:09:34;;;;;;;3.42;2.25;;;;;;;20.11;nan;100992.50;2090382;28;20044;-69
2022/08/14 01:10:49;;;;;;;3.17;2.20;;;;;;;20.09;nan;100989.31;2103557;28;20052;-66
2022/08/14 01:11:56;;;;;;;5.60;2.67;;;;;;;20.07;nan;100991.56;2096766;28;20040;-68
2022/08/14 01:13:00;;;;;;;7.03;2.47;;;;;;;20.06;nan;100989.97;2089218;28;20052;-68
2022/08/14 01:14:05;;;;;;;5.13;2.55;;;;;;;20.05;nan;100987.56;2097118;28;20052;-68
2022/08/14 01:15:06;;;;;;;3.85;2.45;;;;;;;20.06;nan;100984.50;2104771;28;20039;-70
2022/08/14 01:16:14;;;;;;;7.25;2.70;;;;;;;20.04;nan;100991.44;2096194;28;20060;-68
2022/08/14 01:17:17;;;;;;;3.03;2.55;;;;;;;20.02;nan;100993.69;2089402;28;20064;-68
2022/08/14 01:21:16;;;;;;;6.80;2.58;;;;;;;20.04;nan;100994.16;2096261;28;20052;-67
2022/08/14 01:22:20;;;;;;;3.58;2.13;;;;;;;19.99;nan;100995.16;2096581;28;20043;-68
2022/08/14 01:23:29;;;;;;;3.70;2.28;;;;;;;19.97;nan;100991.97;2095895;28;20064;-68
2022/08/14 01:24:32;;;;;;;2.90;2.35;;;;;;;19.95;nan;100988.75;2096839;28;20044;-68
2022/08/14 01:25:38;;;;;;;4.00;2.17;;;;;;;19.98;nan;100992.75;2088080;28;20075;-68
2022/08/14 01:26:42;;;;;;;5.00;2.17;;;;;;;19.96;nan;100984.91;2084869;28;20033;-68
2022/08/14 01:27:46;;;;;;;7.45;2.55;;;;;;;19.95;nan;100993.41;2088239;28;20032;-68
2022/08/14 01:28:56;;;;;;;6.45;2.65;;;;;;;19.93;nan;100999.22;2088218;28;20041;-68
2022/08/14 01:30:00;;;;;;;7.82;2.83;;;;;;;19.92;nan;100986.69;2080904;28;20060;-67
2022/08/14 01:31:07;;;;;;;4.22;2.50;;;;;;;19.91;nan;100985.09;2090523;28;20056;-67
2022/08/14 01:32:11;;;;;;;6.00;2.30;;;;;;;19.89;nan;100990.06;2104010;28;20047;-67
2022/08/14 01:33:13;;;;;;;8.13;2.47;;;;;;;19.86;nan;100988.00;2096480;28;20041;-66
2022/08/14 01:34:19;;;;;;;4.18;2.22;;;;;;;19.89;nan;100990.06;2093410;28;20052;-69
2022/08/14 01:35:22;;;;;;;8.50;2.50;;;;;;;19.93;nan;100984.78;2088559;28;20037;-68
2022/08/14 01:36:36;;;;;;;4.93;2.28;;;;;;;19.90;nan;100991.69;2095968;28;20506;-68
2022/08/14 01:37:38;;;;;;;8.50;2.30;;;;;;;19.91;nan;100993.28;2096377;28;20044;-67
2022/08/14 01:38:47;;;;;;;4.45;2.35;;;;;;;19.94;nan;100998.06;2096103;28;20395;-67
2022/08/14 01:39:50;;;;;;;5.95;2.72;;;;;;;19.95;nan;100996.94;2088124;28;20028;-67
2022/08/14 01:40:57;;;;;;;5.30;2.42;;;;;;;19.95;nan;100990.69;2088139;28;20032;-68
2022/08/14 01:41:59;;;;;;;7.25;2.90;;;;;;;19.98;nan;100988.09;2092606;28;20123;-68
2022/08/14 01:43:02;;;;;;;7.30;2.75;;;;;;;19.94;nan;100989.88;2104848;28;20439;-67
2022/08/14 01:44:11;;;;;;;5.10;2.75;;;;;;;19.95;nan;100986.03;2087815;28;20672;-67
2022/08/14 01:45:16;;;;;;;7.63;2.55;;;;;;;19.96;nan;100986.84;2074374;28;20045;-67
2022/08/14 01:46:41;;;;;;;6.47;2.20;;;;;;;19.97;nan;100986.50;2080359;28;20040;-68
2022/08/14 01:47:43;;;;;;;5.85;2.70;;;;;;;19.99;nan;100988.91;2104998;28;20044;-68
2022/08/14 01:48:50;;;;;;;5.55;2.25;;;;;;;19.96;nan;100979.44;2112718;28;20043;-68
2022/08/14 01:49:53;;;;;;;7.57;2.40;;;;;;;19.94;nan;100986.38;2104528;28;20035;-67
2022/08/14 01:51:00;;;;;;;6.55;2.65;;;;;;;19.92;nan;100983.94;2096316;28;20388;-67
2022/08/14 01:52:04;;;;;;;4.75;2.67;;;;;;;19.90;nan;100994.41;2097316;28;20040;-67
2022/08/14 01:53:16;;;;;;;8.07;2.42;;;;;;;19.90;nan;100991.69;2097466;28;20051;-67
2022/08/14 01:54:23;;;;;;;8.07;2.50;;;;;;;19.90;nan;100991.69;2097044;28;20056;-67
2022/08/14 01:55:30;;;;;;;5.40;2.22;;;;;;;19.91;nan;100990.56;2113121;28;20039;-67
2022/08/14 01:56:39;;;;;;;8.52;2.20;;;;;;;19.94;nan;100987.16;2095260;28;20036;-67
2022/08/14 01:57:45;;;;;;;11.02;2.40;;;;;;;19.94;nan;100981.69;2081636;28;20421;-67
2022/08/14 01:58:49;;;;;;;8.20;2.33;;;;;;;19.91;nan;100994.06;2088929;28;20112;-68
2022/08/14 01:59:57;;;;;;;8.10;2.17;;;;;;;19.94;nan;100987.16;2096290;28;20427;-67
2022/08/14 02:01:03;;;;;;;6.97;2.28;;;;;;;19.95;nan;100988.75;2104385;28;20054;-68
2022/08/14 02:02:11;;;;;;;6.50;2.67;;;;;;;19.98;nan;100987.28;2104119;28;20032;-69
2022/08/14 02:03:15;;;;;;;4.57;2.47;;;;;;;19.99;nan;100986.97;2096053;28;20041;-67
2022/08/14 02:04:21;;;;;;;6.45;2.70;;;;;;;19.97;nan;100983.78;2092397;28;20558;-68
2022/08/14 02:05:30;;;;;;;4.75;2.70;;;;;;;19.99;nan;100980.72;2087632;28;20049;-66
2022/08/14 02:06:33;;;;;;;8.70;2.53;;;;;;;20.00;nan;100977.66;2096143;28;20442;-67
2022/08/14 02:07:37;;;;;;;5.72;2.20;;;;;;;20.00;nan;100983.09;2079578;28;20417;-67
2022/08/14 02:08:42;;;;;;;7.60;2.80;;;;;;;19.99;nan;100978.78;2081050;28;20052;-68
2022/08/14 02:09:47;;;;;;;2.53;2.08;;;;;;;19.99;nan;100976.06;2095534;28;20056;-68
2022/08/14 02:12:17;;;;;;;9.55;2.40;;;;;;;19.99;nan;100976.06;2087478;28;20489;-67
2022/08/14 02:13:22;;;;;;;7.85;2.28;;;;;;;19.94;nan;100973.53;2087847;28;20033;-68
2022/08/14 02:14:24;;;;;;;3.63;2.00;;;;;;;19.96;nan;100976.72;2079699;28;20543;-68
2022/08/14 02:15:26;;;;;;;7.63;2.90;;;;;;;19.95;nan;100975.09;2087720;28;20047;-68
2022/08/14 02:16:32;;;;;;;4.10;2.30;;;;;;;19.96;nan;100978.66;2096093;28;20435;-69
2022/08/14 02:17:38;;;;;;;5.68;2.38;;;;;;;19.98;nan;100970.91;2095604;28;20048;-68
2022/08/14 02:18:47;;;;;;;8.63;2.60;;;;;;;19.96;nan;100976.72;2087930;28;20045;-68
2022/08/14 02:19:53;;;;;;;7.30;2.50;;;;;;;19.97;nan;100970.13;2087258;28;20369;-66
2022/08/14 02:20:58;;;;;;;3.83;2.40;;;;;;;19.95;nan;100977.03;2088804;28;20055;-68
2022/08/14 02:22:05;;;;;;;5.10;2.53;;;;;;;19.93;nan;100977.38;2095883;28;20083;-69
2022/08/14 02:23:12;;;;;;;3.60;2.38;;;;;;;19.93;nan;100974.66;2095943;28;20403;-68
2022/08/14 02:24:15;;;;;;;9.52;3.15;;;;;;;19.92;nan;100970.31;2104541;28;20102;-67
2022/08/14 02:25:17;;;;;;;5.43;2.10;;;;;;;19.88;nan;100972.91;2104158;28;20044;-67
2022/08/14 02:26:27;;;;;;;4.60;2.17;;;;;;;19.86;nan;100974.38;2095993;28;20573;-67
2022/08/14 02:27:29;;;;;;;6.25;2.17;;;;;;;19.83;nan;100969.56;2096808;28;20040;-68
2022/08/14 02:28:36;;;;;;;4.60;2.10;;;;;;;19.83;nan;100977.75;2095862;28;20407;-68
2022/08/14 02:29:44;;;;;;;5.45;2.03;;;;;;;19.76;nan;100974.75;2094846;28;20037;-68
2022/08/14 02:30:48;;;;;;;6.13;2.50;;;;;;;19.77;nan;100973.66;2084481;28;20033;-68
2022/08/14 02:32:15;;;;;;;4.75;2.28;;;;;;;19.70;nan;100970.63;2088058;28;20035;-68
2022/08/14 02:33:17;;;;;;;6.90;2.13;;;;;;;19.70;nan;100970.63;2079452;28;20041;-67
2022/08/14 02:34:21;;;;;;;5.82;2.38;;;;;;;19.70;nan;100965.94;2082691;28;20041;-67
2022/08/14 02:35:26;;;;;;;5.05;2.60;;;;;;;19.70;nan;100970.63;2095895;28;20048;-68
2022/08/14 02:36:28;;;;;;;4.45;2.78;;;;;;;19.64;nan;100962.63;2096571;28;20044;-68
2022/08/14 02:37:32;;;;;;;3.67;2.33;;;;;;;19.62;nan;100967.59;2104014;28;20039;-68
2022/08/14 02:38:36;;;;;;;8.73;2.60;;;;;;;19.60;nan;100967.09;2102586;28;20047;-68
2022/08/14 02:39:45;;;;;;;5.43;2.60;;;;;;;19.60;nan;100967.09;2096145;28;20036;-68
2022/08/14 02:40:47;;;;;;;;;;;;;;;19.56;nan;100965.38;2096658;28;20032;-68
2022/08/14 02:41:51;;;;;;;5.72;2.60;;;;;;;19.57;nan;100973.22;2096073;28;19923;-68
2022/08/14 02:43:01;;;;;;;7.35;2.70;;;;;;;19.59;nan;100972.91;2095872;28;20048;-68
2022/08/14 02:44:11;;;;;;;6.93;2.75;;;;;;;19.56;nan;100968.09;2096077;28;20044;-68
2022/08/14 02:45:15;;;;;;;5.97;2.60;;;;;;;19.57;nan;100969.69;2096709;28;20055;-67
2022/08/14 02:46:21;;;;;;;7.20;2.65;;;;;;;19.56;nan;100968.91;2104210;28;20515;-67
2022/08/14 02:47:25;;;;;;;5.60;2.40;;;;;;;19.56;nan;100965.38;2107995;28;20051;-68
2022/08/14 02:48:30;;;;;;;8.13;2.60;;;;;;;19.54;nan;100964.91;2104006;28;20048;-68
2022/08/14 02:49:40;;;;;;;7.25;3.10;;;;;;;19.53;nan;100969.56;2094845;28;20534;-68
2022/08/14 02:50:47;;;;;;;3.88;2.70;;;;;;;19.52;nan;100965.25;2095482;28;20049;-68
2022/08/14 02:51:57;;;;;;;5.93;2.53;;;;;;;19.51;nan;100971.81;2094005;28;20071;-68
2022/08/14 02:53:01;;;;;;;8.95;2.58;;;;;;;19.54;nan;100973.88;2104190;28;20032;-68
2022/08/14 02:54:08;;;;;;;5.68;3.00;;;;;;;19.57;nan;100966.97;2095692;28;20079;-68
2022/08/14 02:55:12;;;;;;;6.13;2.67;;;;;;;19.57;nan;100964.25;2087223;28;20052;-67
2022/08/14 02:56:16;;;;;;;12.52;2.78;;;;;;;19.58;nan;100960.41;2088189;28;20048;-68
2022/08/14 02:57:18;;;;;;;5.60;3.00;;;;;;;19.59;nan;100962.00;2102414;28;20067;-68
2022/08/14 02:58:22;;;;;;;6.43;2.90;;;;;;;19.58;nan;100963.94;2104312;28;20050;-67
2022/08/14 02:59:30;;;;;;;6.63;2.85;;;;;;;19.58;nan;100953.00;2095773;28;20055;-68
2022/08/14 03:00:34;;;;;;;6.97;2.70;;;;;;;19.58;nan;100958.47;2086223;28;20061;-68
2022/08/14 03:01:42;;;;;;;8.85;3.45;;;;;;;19.61;nan;100970.66;2087165;28;20920;-66
2022/08/14 03:02:46;;;;;;;6.57;2.75;;;;;;;19.62;nan;100962.13;2088388;28;20052;-68
2022/08/14 03:03:49;;;;;;;7.55;2.92;;;;;;;19.60;nan;100964.38;2096437;28;20032;-68
2022/08/14 03:04:54;;;;;;;5.32;2.90;;;;;;;19.57;nan;100962.31;2096141;28;20514;-67
2022/08/14 03:05:56;;;;;;;7.28;2.92;;;;;;;19.59;nan;100967.44;2096407;28;20044;-67
2022/08/14 03:07:03;;;;;;;7.93;2.85;;;;;;;19.59;nan;100957.34;2103718;28;20040;-67
2022/08/14 03:08:07;;;;;;;6.38;2.95;;;;;;;19.59;nan;100960.06;2103585;28;20519;-67
2022/08/14 03:09:12;;;;;;;4.85;2.83;;;;;;;19.57;nan;100956.06;2088583;28;20151;-68
2022/08/14 03:10:14;;;;;;;5.95;2.88;;;;;;;19.58;nan;100957.69;2087489;28;20389;-67
2022/08/14 03:11:17;;;;;;;10.38;3.22;;;;;;;19.57;nan;100953.31;2087752;28;20049;-66
2022/08/14 03:12:20;;;;;;;5.03;2.72;;;;;;;19.54;nan;100960.22;2095540;28;20041;-65
2022/08/14 03:13:26;;;;;;;4.38;2.50;;;;;;;19.52;nan;100959.78;2095718;28;20060;-66
2022/08/14 03:14:28;;;;;;;8.85;3.05;;;;;;;19.50;nan;100959.31;2095786;28;20063;-67
2022/08/14 03:15:32;;;;;;;8.30;3.08;;;;;;;19.51;nan;100957.38;2095912;28;20040;-68
2022/08/14 03:16:40;;;;;;;5.38;2.70;;;;;;;19.48;nan;100956.09;2095508;28;20056;-67
2022/08/14 03:17:45;;;;;;;5.90;2.85;;;;;;;19.44;nan;100953.22;2096912;28;20056;-66
2022/08/14 03:18:57;;;;;;;5.63;3.00;;;;;;;19.38;nan;100946.38;2087268;28;20037;-67
2022/08/14 03:20:00;;;;;;;8.13;3.63;;;;;;;19.33;nan;100962.13;2082405;28;20029;-66
2022/08/14 03:21:10;;;;;;;8.18;3.22;;;;;;;19.31;nan;100958.91;2086570;28;20037;-66
2022/08/14 03:22:16;;;;;;;7.72;3.25;;;;;;;19.28;nan;100954.13;2089473;28;20045;-66
2022/08/14 03:23:19;;;;;;;6.82;3.22;;;;;;;19.26;nan;100956.38;2095527;28;20044;-67
2022/08/14 03:24:24;;;;;;;5.53;3.30;;;;;;;19.26;nan;100959.88;2089875;28;20056;-66
2022/08/14 03:25:30;;;;;;;5.90;3.40;;;;;;;19.27;nan;100957.97;2097053;28;20045;-67
2022/08/14 03:26:36;;;;;;;8.05;3.25;;;;;;;19.26;nan;100957.16;2106015;28;20435;-68
2022/08/14 03:27:41;;;;;;;6.07;3.00;;;;;;;19.26;nan;100957.16;2104891;28;20032;-68
2022/08/14 03:28:50;;;;;;;5.63;2.72;;;;;;;19.23;nan;100952.38;2097438;28;20074;-67
2022/08/14 03:29:52;;;;;;;6.85;3.05;;;;;;;19.27;nan;100956.06;2095967;28;20036;-67
2022/08/14 03:30:56;;;;;;;6.20;3.47;;;;;;;19.30;nan;100958.13;2097910;28;20388;-67
2022/08/14 03:32:00;;;;;;;6.13;2.70;;;;;;;19.34;nan;100955.53;2114321;28;20050;-66
2022/08/14 03:33:10;;;;;;;6.90;3.03;;;;;;;19.36;nan;100948.63;2104450;28;20438;-67
2022/08/14 03:34:14;;;;;;;9.88;4.03;;;;;;;19.36;nan;100947.84;2096437;28;20115;-67
2022/08/14 03:35:20;;;;;;;7.82;3.13;;;;;;;19.39;nan;100955.38;2097418;28;20055;-67
2022/08/14 03:36:26;;;;;;;8.68;2.70;;;;;;;19.38;nan;100948.28;2098155;28;20048;-67
2022/08/14 03:37:36;;;;;;;9.95;2.85;;;;;;;19.41;nan;100951.16;2097203;28;20059;-68
2022/08/14 03:38:42;;;;;;;4.80;2.92;;;;;;;19.42;nan;100954.72;2088911;28;20060;-67
2022/08/14 03:39:45;;;;;;;7.95;2.75;;;;;;;19.50;nan;100953.84;2089214;28;20033;-67
2022/08/14 03:40:50;;;;;;;5.20;2.60;;;;;;;19.55;nan;100948.22;2088929;28;20478;-68
2022/08/14 03:41:56;;;;;;;6.60;2.88;;;;;;;19.60;nan;100950.75;2098256;28;20032;-67
2022/08/14 03:43:04;;;;;;;5.40;3.03;;;;;;;19.59;nan;100946.41;2105138;28;20960;-67
2022/08/14 03:44:09;;;;;;;9.48;3.10;;;;;;;19.63;nan;100950.06;2096557;28;20044;-68
2022/08/14 03:45:11;;;;;;;6.15;3.00;;;;;;;19.70;nan;100948.78;2090938;28;20045;-67
2022/08/14 03:46:16;;;;;;;8.10;3.13;;;;;;;19.77;nan;100947.16;2097603;28;20040;-68
2022/08/14 03:47:19;;;;;;;9.20;3.00;;;;;;;19.82;nan;100946.16;2105206;28;20043;-67
2022/08/14 03:48:25;;;;;;;6.35;3.00;;;;;;;19.81;nan;100944.56;2105173;28;20499;-67
2022/08/14 03:49:29;;;;;;;7.25;3.00;;;;;;;19.88;nan;100944.81;2097068;28;20040;-68
2022/08/14 03:50:33;;;;;;;5.68;3.38;;;;;;;19.97;nan;100947.50;2088897;28;20041;-66
2022/08/14 03:51:36;;;;;;;5.45;3.00;;;;;;;20.01;nan;100949.22;2106049;28;20495;-66
2022/08/14 03:52:44;;;;;;;5.53;3.10;;;;;;;20.08;nan;100952.22;2112600;28;20047;-67
2022/08/14 03:53:47;;;;;;;8.90;2.90;;;;;;;20.14;nan;100948.16;2097220;28;20052;-67
2022/08/14 03:54:51;;;;;;;6.97;2.83;;;;;;;20.22;nan;100943.75;2089832;28;20944;-67
2022/08/14 03:55:57;;;;;;;7.22;2.90;;;;;;;20.28;nan;100941.63;2105917;28;20035;-68
2022/08/14 03:57:00;;;;;;;9.27;4.10;;;;;;;20.30;nan;100944.81;2107289;28;20051;-68
2022/08/14 03:58:04;;;;;;;6.13;3.20;;;;;;;20.33;nan;100944.13;2097234;28;20044;-67
2022/08/14 03:59:12;;;;;;;4.85;3.40;;;;;;;20.44;nan;100944.53;2096147;28;20040;-67
2022/08/14 04:00:18;;;;;;;8.82;2.88;;;;;;;20.55;nan;100940.28;2097284;28;20079;-68
2022/08/14 04:01:23;;;;;;;6.05;2.92;;;;;;;20.60;nan;100948.25;2096884;28;20036;-69
2022/08/14 04:02:28;;;;;;;5.65;2.58;;;;;;;20.63;nan;100946.78;2089238;28;20053;-67
2022/08/14 04:03:30;;;;;;;5.88;3.00;;;;;;;20.68;nan;100941.09;2088385;28;20516;-68
2022/08/14 04:04:33;;;;;;;7.35;4.25;;;;;;;20.77;nan;100947.28;2094374;28;21307;-68
2022/08/14 04:05:38;;;;;;;8.68;3.10;;;;;;;20.85;nan;100945.59;2097326;28;20033;-68
2022/08/14 04:06:47;;;;;;;4.05;3.10;;;;;;;20.92;nan;100943.09;2096923;28;20791;-69
2022/08/14 04:07:49;;;;;;;8.10;3.13;;;;;;;20.91;nan;100942.31;2088836;28;20037;-68
2022/08/14 04:08:52;;;;;;;10.48;3.58;;;;;;;20.90;nan;100940.72;2072635;28;20042;-69
2022/08/14 04:10:00;;;;;;;6.93;3.17;;;;;;;20.92;nan;100941.16;2089257;28;20449;-69
2022/08/14 04:11:01;;;;;;;8.80;3.45;;;;;;;20.96;nan;100939.34;2088995;28;20037;-68
2022/08/14 04:12:08;;;;;;;8.23;3.20;;;;;;;21.01;nan;100935.59;2088678;28;20052;-68
2022/08/14 04:13:17;;;;;;;4.63;2.92;;;;;;;21.08;nan;100935.03;2095857;28;20055;-68
2022/08/14 04:14:20;;;;;;;6.75;2.90;;;;;;;21.10;nan;100933.56;2096044;28;20103;-68
2022/08/14 04:15:23;;;;;;;10.70;3.25;;;;;;;21.19;nan;100942.47;2104129;28;20042;-68
2022/08/14 04:16:27;;;;;;;6.65;3.22;;;;;;;21.26;nan;100936.44;2104019;28;20368;-68
2022/08/14 04:17:32;;;;;;;5.22;3.10;;;;;;;21.33;nan;100942.13;2097189;28;20056;-68
2022/08/14 04:18:42;;;;;;;6.10;3.50;;;;;;;21.40;nan;100938.84;2104242;28;20036;-68
2022/08/14 04:19:45;;;;;;;5.03;2.92;;;;;;;21.54;nan;100943.97;2088906;28;20051;-68
2022/08/14 04:20:49;;;;;;;8.15;2.92;;;;;;;21.62;nan;100943.03;2104534;28;20486;-68
2022/08/14 04:21:53;;;;;;;6.15;3.00;;;;;;;21.68;nan;100930.72;2087269;28;20045;-68
2022/08/14 04:22:55;;;;;;;8.48;3.20;;;;;;;21.79;nan;100939.28;2068075;28;20429;-68
2022/08/14 04:24:04;;;;;;;7.97;3.50;;;;;;;21.85;nan;100935.94;2087765;28;20041;-69
2022/08/14 04:25:09;;;;;;;8.80;3.20;;;;;;;21.86;nan;100948.47;2096718;28;20040;-68
2022/08/14 04:26:13;;;;;;;8.65;3.08;;;;;;;22.01;nan;100938.75;2095925;28;20047;-67
2022/08/14 04:27:15;;;;;;;9.10;3.50;;;;;;;22.10;nan;100946.81;2087730;28;20040;-68
2022/08/14 04:28:25;;;;;;;8.82;2.80;;;;;;;22.19;nan;100937.38;2095704;28;20047;-68
2022/08/14 04:29:27;;;;;;;8.07;2.92;;;;;;;22.27;nan;100937.56;2096502;28;20062;-68
2022/08/14 04:30:30;;;;;;;5.70;3.15;;;;;;;22.34;nan;100930.31;2089698;28;20460;-68
2022/08/14 04:31:38;;;;;;;7.78;2.67;;;;;;;22.40;nan;100934.41;2104177;28;20031;-68
2022/08/14 04:32:43;;;;;;;6.00;2.97;;;;;;;22.47;nan;100933.00;2109013;28;20060;-68
2022/08/14 04:33:48;;;;;;;10.30;2.95;;;;;;;22.48;nan;100929.94;2102328;28;20099;-68
2022/08/14 04:34:56;;;;;;;7.28;3.25;;;;;;;22.53;nan;100935.16;2102510;28;20530;-67
2022/08/14 04:35:59;;;;;;;6.70;2.80;;;;;;;22.61;nan;100927.94;2095697;28;20501;-68
2022/08/14 04:44:01;;;;;;;6.45;3.38;;;;;;;23.23;nan;100931.06;2095837;28;20043;-67
2022/08/14 04:45:07;;;;;;;6.00;3.00;;;;;;;23.28;nan;100939.81;2096500;28;20029;-67
2022/08/14 04:46:14;;;;;;;5.68;2.97;;;;;;;23.31;nan;100928.13;2102931;28;20786;-68
2022/08/14 04:48:48;;;;;;;6.57;3.03;;;;;;;23.36;nan;100933.38;2103764;28;19916;-68
2022/08/14 04:49:50;;;;;;;5.75;3.13;;;;;;;23.44;nan;100919.81;2095760;28;20028;-67
2022/08/14 04:50:56;;;;;;;5.03;2.83;;;;;;;23.58;nan;100926.41;2087682;28;20028;-68
2022/08/14 04:52:08;;;;;;;6.82;2.80;;;;;;;23.67;nan;100923.47;2087885;28;20048;-66
2022/08/14 04:53:24;;;;;;;9.45;3.28;;;;;;;23.78;nan;100924.53;2094267;28;20029;-66
2022/08/14 04:54:26;;;;;;;7.47;3.08;;;;;;;23.84;nan;100922.31;2103390;28;20055;-67
2022/08/14 04:55:28;;;;;;;8.65;3.08;;;;;;;23.93;nan;100924.81;2103019;28;20039;-67
2022/08/14 04:56:31;;;;;;;6.63;2.63;;;;;;;23.90;nan;100914.59;2086644;28;20100;-68
2022/08/14 04:57:33;;;;;;;3.50;2.90;;;;;;;24.02;nan;100914.41;2078788;28;20108;-67
2022/08/14 04:58:41;;;;;;;7.30;2.95;;;;;;;24.16;nan;100916.69;2095203;28;20059;-67
2022/08/14 04:59:43;;;;;;;7.70;3.03;;;;;;;24.24;nan;100918.38;2086685;28;20515;-68
2022/08/14 05:00:49;;;;;;;7.95;3.00;;;;;;;24.31;nan;100921.28;2087971;28;20041;-67
2022/08/14 05:01:52;;;;;;;7.78;2.75;;;;;;;24.31;nan;100914.97;2102707;28;20032;-68
2022/08/14 05:02:55;;;;;;;12.15;3.28;;;;;;;24.32;nan;100911.09;2095021;28;20691;-66
2022/08/14 05:04:01;;;;;;;17.48;3.25;;;;;;;24.42;nan;100919.56;2094146;28;20067;-67
2022/08/14 05:05:03;;;;;;;9.20;3.05;;;;;;;24.53;nan;100914.28;2086310;28;20480;-68
2022/08/14 05:06:10;;;;;;;6.13;2.65;;;;;;;24.42;nan;100914.06;2095212;28;20036;-68
2022/08/14 05:07:18;;;;;;;8.25;2.95;;;;;;;24.49;nan;100919.69;2078078;28;20067;-68
2022/08/14 05:08:24;;;;;;;5.07;2.92;;;;;;;24.36;nan;100920.19;2072828;28;20053;-69
2022/08/14 05:09:25;;;;;;;6.05;3.17;;;;;;;24.38;nan;100913.19;2078852;28;20076;-69
2022/08/14 05:10:33;;;;;;;7.03;2.78;;;;;;;24.39;nan;100922.22;2078321;28;20059;-66
2022/08/14 05:11:37;;;;;;;4.03;2.50;;;;;;;24.50;nan;100924.03;2070994;28;20049;-67
2022/08/14 05:12:42;;;;;;;10.55;2.67;;;;;;;24.52;nan;100923.66;2070721;28;20549;-68
2022/08/14 05:13:45;;;;;;;6.50;2.72;;;;;;;24.65;nan;100919.63;2078398;28;20875;-67
2022/08/14 05:14:49;;;;;;;8.18;3.40;;;;;;;24.80;nan;100915.13;2086496;28;20048;-68
2022/08/14 05:15:54;;;;;;;9.20;3.28;;;;;;;24.90;nan;100913.72;2077946;28;20056;-65
2022/08/14 05:16:57;;;;;;;8.48;2.80;;;;;;;24.92;nan;100919.66;2070967;28;20076;-65
2022/08/14 05:18:12;;;;;;;8.88;3.30;;;;;;;24.95;nan;100918.94;2078980;28;20513;-65
2022/08/14 05:19:20;;;;;;;13.50;3.10;;;;;;;25.03;nan;100920.66;2077270;28;20056;-65
2022/08/14 05:20:26;;;;;;;7.70;2.80;;;;;;;24.84;nan;100916.00;2070500;28;20053;-63
2022/08/14 05:21:37;;;;;;;5.15;2.58;;;;;;;24.81;nan;100913.19;2070765;28;20056;-64
2022/08/14 05:22:44;;;;;;;7.05;2.90;;;;;;;24.94;nan;100912.66;2073456;28;20073;-64
2022/08/14 05:23:46;;;;;;;10.20;3.22;;;;;;;25.12;nan;100914.88;2095510;28;20128;-64
2022/08/14 05:24:48;;;;;;;4.15;2.67;;;;;;;25.20;nan;100920.16;2094767;28;20052;-64